地図

経路データ

SID SEASON NUMBER BASIN SUBBASIN NAME ISO_TIME NATURE LAT LON WMO_WIND WMO_PRES WMO_AGENCY TRACK_TYPE DIST2LAND LANDFALL IFLAG USA_AGENCY USA_ATCF_ID USA_LAT USA_LON USA_RECORD USA_STATUS USA_WIND USA_PRES USA_SSHS USA_R34_NE USA_R34_SE USA_R34_SW USA_R34_NW USA_R50_NE USA_R50_SE USA_R50_SW USA_R50_NW USA_R64_NE USA_R64_SE USA_R64_SW USA_R64_NW USA_POCI USA_ROCI USA_RMW USA_EYE TOKYO_LAT TOKYO_LON TOKYO_GRADE TOKYO_WIND TOKYO_PRES TOKYO_R50_DIR TOKYO_R50_LONG TOKYO_R50_SHORT TOKYO_R30_DIR TOKYO_R30_LONG TOKYO_R30_SHORT TOKYO_LAND CMA_LAT CMA_LON CMA_CAT CMA_WIND CMA_PRES HKO_LAT HKO_LON HKO_CAT HKO_WIND HKO_PRES NEWDELHI_LAT NEWDELHI_LON NEWDELHI_GRADE NEWDELHI_WIND NEWDELHI_PRES NEWDELHI_CI NEWDELHI_DP NEWDELHI_POCI REUNION_LAT REUNION_LON REUNION_TYPE REUNION_WIND REUNION_PRES REUNION_TNUM REUNION_CI REUNION_RMW REUNION_R34_NE REUNION_R34_SE REUNION_R34_SW REUNION_R34_NW REUNION_R50_NE REUNION_R50_SE REUNION_R50_SW REUNION_R50_NW REUNION_R64_NE REUNION_R64_SE REUNION_R64_SW REUNION_R64_NW BOM_LAT BOM_LON BOM_TYPE BOM_WIND BOM_PRES BOM_TNUM BOM_CI BOM_RMW BOM_R34_NE BOM_R34_SE BOM_R34_SW BOM_R34_NW BOM_R50_NE BOM_R50_SE BOM_R50_SW BOM_R50_NW BOM_R64_NE BOM_R64_SE BOM_R64_SW BOM_R64_NW BOM_ROCI BOM_POCI BOM_EYE BOM_POS_METHOD BOM_PRES_METHOD NADI_LAT NADI_LON NADI_CAT NADI_WIND NADI_PRES WELLINGTON_LAT WELLINGTON_LON WELLINGTON_WIND WELLINGTON_PRES DS824_LAT DS824_LON DS824_STAGE DS824_WIND DS824_PRES TD9636_LAT TD9636_LON TD9636_STAGE TD9636_WIND TD9636_PRES TD9635_LAT TD9635_LON TD9635_WIND TD9635_PRES TD9635_ROCI NEUMANN_LAT NEUMANN_LON NEUMANN_CLASS NEUMANN_WIND NEUMANN_PRES MLC_LAT MLC_LON MLC_CLASS MLC_WIND MLC_PRES USA_GUST BOM_GUST BOM_GUST_PER REUNION_GUST REUNION_GUST_PER USA_SEAHGT USA_SEARAD_NE USA_SEARAD_SE USA_SEARAD_SW USA_SEARAD_NW STORM_SPEED STORM_DIR
1910075N09133 1910 14 WP MM NOT_NAMED 1910-03-15 16:00:00 NR 9.30000 132.700 main 694 623 __________O___ -1 9.30000 132.700 7 29 300
1910075N09133 1910 14 WP MM NOT_NAMED 1910-03-15 18:00:00 NR 9.77404 131.858 main 625 503 __________P___ -1 9.77404 131.858 7 28 300
1910075N09133 1910 14 WP MM NOT_NAMED 1910-03-15 21:00:00 NR 10.4555 130.638 main 503 404 __________P___ -1 10.4555 130.638 7 26 300
1910075N09133 1910 14 WP MM NOT_NAMED 1910-03-16 00:00:00 NR 11.0655 129.540 main 404 312 __________P___ -1 11.0655 129.540 7 23 300
1910075N09133 1910 14 WP MM NOT_NAMED 1910-03-16 03:00:00 NR 11.5647 128.641 main 312 294 __________P___ -1 11.5647 128.641 7 19 300
1910075N09133 1910 14 WP MM NOT_NAMED 1910-03-16 04:00:00 NR 11.7000 128.400 main 294 260 __________O___ -1 11.7000 128.400 7 14 300
1910075N09133 1910 14 WP MM NOT_NAMED 1910-03-16 06:00:00 NR 11.9205 128.013 main 260 228 __________P___ -1 11.9205 128.013 7 11 301
1910075N09133 1910 14 WP MM NOT_NAMED 1910-03-16 09:00:00 NR 12.1581 127.623 main 228 206 __________P___ -1 12.1581 127.623 7 8 304
1910075N09133 1910 14 WP MM NOT_NAMED 1910-03-16 12:00:00 NR 12.3395 127.376 main 206 187 __________P___ -1 12.3395 127.376 7 6 310
1910075N09133 1910 14 WP MM NOT_NAMED 1910-03-16 15:00:00 NR 12.5261 127.174 main 187 179 __________P___ -1 12.5261 127.174 7 6 314
1910075N09133 1910 14 WP MM NOT_NAMED 1910-03-16 16:00:00 NR 12.6000 127.100 main 179 162 __________O___ -1 12.6000 127.100 7 9 313
1910075N09133 1910 14 WP MM NOT_NAMED 1910-03-16 18:00:00 NR 12.8153 126.857 main 166 148 __________P___ -1 12.8153 126.857 7 10 314
1910075N09133 1910 14 WP MM NOT_NAMED 1910-03-16 21:00:00 NR 13.1701 126.485 main 155 148 __________P___ -1 13.1701 126.485 7 10 315
1910075N09133 1910 14 WP MM NOT_NAMED 1910-03-17 00:00:00 NR 13.5380 126.125 main 148 150 __________P___ -1 13.5380 126.125 7 10 317
1910075N09133 1910 14 WP MM NOT_NAMED 1910-03-17 03:00:00 NR 13.8906 125.798 main 151 140 __________P___ -1 13.8906 125.798 7 9 318
1910075N09133 1910 14 WP MM NOT_NAMED 1910-03-17 04:00:00 NR 14.0000 125.700 main 140 123 __________O___ -1 14.0000 125.700 4 8 318
1910075N09133 1910 14 WP MM NOT_NAMED 1910-03-17 06:00:00 NR 14.1788 125.532 main 123 112 __________P___ -1 14.1788 125.532 4 7 319
1910075N09133 1910 14 WP MM NOT_NAMED 1910-03-17 09:00:00 NR 14.4217 125.318 main 112 108 __________P___ -1 14.4217 125.318 4 6 321
1910075N09133 1910 14 WP MM NOT_NAMED 1910-03-17 12:00:00 NR 14.6565 125.133 main 116 116 __________P___ -1 14.6565 125.133 4 6 325
1910075N09133 1910 14 WP MM NOT_NAMED 1910-03-17 15:00:00 NR 14.9081 124.959 main 125 119 __________P___ -1 14.9081 124.959 4 6 327
1910075N09133 1910 14 WP MM NOT_NAMED 1910-03-17 16:00:00 NR 15.0000 124.900 main 129 129 __________O___ -1 15.0000 124.900 4 7 327
1910075N09133 1910 14 WP MM NOT_NAMED 1910-03-17 18:00:00 NR 15.2105 124.756 main 144 141 __________P___ -1 15.2105 124.756 4 8 328
1910075N09133 1910 14 WP MM NOT_NAMED 1910-03-17 21:00:00 NR 15.5515 124.540 main 180 180 __________P___ -1 15.5515 124.540 4 8 330
1910075N09133 1910 14 WP MM NOT_NAMED 1910-03-18 00:00:00 NR 15.9117 124.335 main 212 193 __________P___ -1 15.9117 124.335 4 8 333
1910075N09133 1910 14 WP MM NOT_NAMED 1910-03-18 03:00:00 NR 16.2784 124.153 main 193 179 __________P___ -1 16.2784 124.153 4 8 335
1910075N09133 1910 14 WP MM NOT_NAMED 1910-03-18 04:00:00 NR 16.4000 124.100 main 179 163 __________O___ -1 16.4000 124.100 4 8 338
1910075N09133 1910 14 WP MM NOT_NAMED 1910-03-18 06:00:00 NR 16.6254 124.002 main 163 148 __________P___ -1 16.6254 124.002 4 7 340
1910075N09133 1910 14 WP MM NOT_NAMED 1910-03-18 09:00:00 NR 16.9634 123.881 main 148 138 __________P___ -1 16.9634 123.881 4 7 343
1910075N09133 1910 14 WP MM NOT_NAMED 1910-03-18 12:00:00 NR 17.3096 123.788 main 142 139 __________P___ -1 17.3096 123.788 4 7 348
1910075N09133 1910 14 WP MM NOT_NAMED 1910-03-18 15:00:00 NR 17.6733 123.718 main 144 144 __________P___ -1 17.6733 123.718 4 8 350
1910075N09133 1910 14 WP MM NOT_NAMED 1910-03-18 16:00:00 NR 17.8000 123.700 main 148 139 __________O___ -1 17.8000 123.700 4 8 350
1910075N09133 1910 14 WP MM NOT_NAMED 1910-03-18 18:00:00 NR 18.0609 123.643 main 139 137 __________P___ -1 18.0609 123.643 4 8 350
1910075N09133 1910 14 WP MM NOT_NAMED 1910-03-18 21:00:00 NR 18.4711 123.576 main 137 134 __________P___ -1 18.4711 123.576 4 9 354
1910075N09133 1910 14 WP MM NOT_NAMED 1910-03-19 00:00:00 NR 18.9011 123.547 main 138 138 __________P___ -1 18.9011 123.547 4 9 0
1910075N09133 1910 14 WP MM NOT_NAMED 1910-03-19 03:00:00 NR 19.3479 123.575 main 169 176 __________P___ -1 19.3479 123.575 4 9 5
1910075N09133 1910 14 WP MM NOT_NAMED 1910-03-19 04:00:00 NR 19.5000 123.600 main 183 183 __________O___ -1 19.5000 123.600 4 10 12
1910075N09133 1910 14 WP MM NOT_NAMED 1910-03-19 06:00:00 NR 19.8210 123.676 main 214 214 __________P___ -1 19.8210 123.676 4 10 16
1910075N09133 1910 14 WP MM NOT_NAMED 1910-03-19 09:00:00 NR 20.3155 123.848 main 264 270 __________P___ -1 20.3155 123.848 4 11 20
1910075N09133 1910 14 WP MM NOT_NAMED 1910-03-19 12:00:00 NR 20.8033 124.068 main 328 328 __________P___ -1 20.8033 124.068 4 10 25
1910075N09133 1910 14 WP MM NOT_NAMED 1910-03-19 15:00:00 NR 21.2593 124.315 main 357 357 __________P___ -1 21.2593 124.315 4 10 27
1910075N09133 1910 14 WP MM NOT_NAMED 1910-03-19 16:00:00 NR 21.4000 124.400 main 362 354 __________O___ -1 21.4000 124.400 4 9 26
1910075N09133 1910 14 WP MM NOT_NAMED 1910-03-19 18:00:00 NR 21.6502 124.514 main 354 354 __________P___ -1 21.6502 124.514 4 8 25
1910075N09133 1910 14 WP MM NOT_NAMED 1910-03-19 21:00:00 NR 21.9879 124.697 main 360 356 __________P___ -1 21.9879 124.697 4 8 31
1910075N09133 1910 14 WP MM NOT_NAMED 1910-03-20 00:00:00 NR 22.2975 124.932 main 369 369 __________P___ -1 22.2975 124.932 4 8 41
1910075N09133 1910 14 WP MM NOT_NAMED 1910-03-20 03:00:00 NR 22.5984 125.261 main 403 403 __________P___ -1 22.5984 125.261 4 9 47
1910075N09133 1910 14 WP MM NOT_NAMED 1910-03-20 04:00:00 NR 22.7000 125.400 main 409 409 __________O___ -1 22.7000 125.400 7 11 54
1910075N09133 1910 14 WP MM NOT_NAMED 1910-03-20 06:00:00 NR 22.9252 125.741 main 426 430 __________P___ -1 22.9252 125.741 7 13 57
1910075N09133 1910 14 WP MM NOT_NAMED 1910-03-20 09:00:00 NR 23.2628 126.355 main 476 476 __________P___ -1 23.2628 126.355 7 14 61
1910075N09133 1910 14 WP MM NOT_NAMED 1910-03-20 12:00:00 NR 23.5914 127.046 main 527 537 __________P___ -1 23.5914 127.046 7 14 64
1910075N09133 1910 14 WP MM NOT_NAMED 1910-03-20 15:00:00 NR 23.9019 127.764 main 599 599 __________P___ -1 23.9019 127.764 7 14 65
1910075N09133 1910 14 WP MM NOT_NAMED 1910-03-20 16:00:00 NR 24.0000 128.000 main 616 616 __________O___ -1 24.0000 128.000 7 12 62
1910075N09133 1910 14 WP MM NOT_NAMED 1910-03-20 18:00:00 NR 24.1848 128.349 main 642 652 __________P___ -1 24.1848 128.349 7 11 61
1910075N09133 1910 14 WP MM NOT_NAMED 1910-03-20 21:00:00 NR 24.4444 128.870 main 699 698 __________P___ -1 24.4444 128.870 7 11 64
1910075N09133 1910 14 WP MM NOT_NAMED 1910-03-21 00:00:00 NR 24.6888 129.477 main 713 682 __________P___ -1 24.6888 129.477 7 14 69
1910075N09133 1910 14 WP MM NOT_NAMED 1910-03-21 03:00:00 NR 24.9234 130.274 main 682 670 __________P___ -1 24.9234 130.274 7 16 73
1910075N09133 1910 14 WP MM NOT_NAMED 1910-03-21 04:00:00 NR 25.0000 130.600 main 669 650 __________O___ -1 25.0000 130.600 7 21 77
1910075N09133 1910 14 WP MM NOT_NAMED 1910-03-21 06:00:00 NR 25.1669 131.401 main 651 647 __________P___ -1 25.1669 131.401 7 25 79
1910075N09133 1910 14 WP MM NOT_NAMED 1910-03-21 09:00:00 NR 25.4028 132.813 main 658 657 __________P___ -1 25.4028 132.813 7 27 81
1910075N09133 1910 14 WP MM NOT_NAMED 1910-03-21 12:00:00 NR 25.6054 134.376 main 702 708 __________P___ -1 25.6054 134.376 7 29 83
1910075N09133 1910 14 WP MM NOT_NAMED 1910-03-21 15:00:00 NR 25.7606 135.977 main 769 774 __________P___ -1 25.7606 135.977 7 29 84
1910075N09133 1910 14 WP MM NOT_NAMED 1910-03-21 16:00:00 NR 25.8000 136.500 main 798 798 __________O___ -1 25.8000 136.500 7 28 86
1910075N09133 1910 14 WP MM NOT_NAMED 1910-03-21 18:00:00 NR 25.8599 137.510 main 852 854 __________P___ -1 25.8599 137.510 7 26 87
1910075N09133 1910 14 WP MM NOT_NAMED 1910-03-21 21:00:00 NR 25.9095 138.950 main 888 892 __________P___ -1 25.9095 138.950 7 25 89
1910075N09133 1910 14 WP MM NOT_NAMED 1910-03-22 00:00:00 NR 25.9218 140.323 main 942 947 __________P___ -1 25.9218 140.323 7 24 90
1910075N09133 1910 14 WP MM NOT_NAMED 1910-03-22 03:00:00 NR 25.9084 141.659 main 1009 1009 __________P___ -1 25.9084 141.659 7 24 91
1910075N09133 1910 14 WP MM NOT_NAMED 1910-03-22 04:00:00 NR 25.9000 142.100 main 1020 __________O___ -1 25.9000 142.100 7 24 91

デジタル台風データ・検索

IBTrACS Databaseについて

本データベースは、米国NOAAが公開する1842年以降の世界の熱帯低気圧のベストトラックデータアーカイブInternational Best Track Archive for Climate Stewardship (IBTrACS)を、ウェブで閲覧しやすい形式に変換したものです。

最終更新日:2021-10-27